createdAt,value
2018-10-05T00:00:38.450Z,101582.44
2018-10-05T00:03:08.059Z,101576.27
2018-10-05T00:05:37.561Z,101586.72
2018-10-05T00:08:07.418Z,101578.35
2018-10-05T00:10:37.321Z,101577.48
2018-10-05T00:13:06.873Z,101571.20
2018-10-05T00:15:36.592Z,101569.62
2018-10-05T00:18:06.506Z,101571.52
2018-10-05T00:20:36.484Z,101569.16
2018-10-05T00:23:06.438Z,101562.47
2018-10-05T00:25:36.222Z,101565.94
2018-10-05T00:28:06.078Z,101568.28
2018-10-05T00:30:35.630Z,101556.70
2018-10-05T00:33:05.110Z,101561.58
2018-10-05T00:35:34.674Z,101563.25
2018-10-05T00:38:04.138Z,101556.44
2018-10-05T00:40:33.843Z,101555.72
2018-10-05T00:43:03.355Z,101551.81
2018-10-05T00:45:32.906Z,101550.14
2018-10-05T00:48:02.433Z,101548.39
2018-10-05T00:50:32.001Z,101548.31
2018-10-05T00:53:01.787Z,101536.07
2018-10-05T00:55:31.770Z,101527.44
2018-10-05T00:58:01.254Z,101524.83
2018-10-05T01:00:31.187Z,101535.13
2018-10-05T01:03:00.642Z,101530.83
2018-10-05T01:05:30.149Z,101522.92
2018-10-05T01:07:59.635Z,101516.75
2018-10-05T01:10:29.178Z,101516.19
2018-10-05T01:12:58.770Z,101510.97
2018-10-05T01:15:28.298Z,101509.14
2018-10-05T01:17:57.836Z,101510.17
2018-10-05T01:20:27.418Z,101510.97
2018-10-05T01:22:56.967Z,101508.87
2018-10-05T01:25:26.461Z,101505.28
2018-10-05T01:27:55.982Z,101496.87
2018-10-05T01:30:25.509Z,101502.30
2018-10-05T01:32:55.018Z,101488.06
2018-10-05T01:35:24.519Z,101491.55
2018-10-05T01:37:54.031Z,101482.75
2018-10-05T01:40:23.549Z,101470.94
2018-10-05T01:42:53.069Z,101474.81
2018-10-05T01:45:22.556Z,101473.59
2018-10-05T01:47:52.032Z,101473.94
2018-10-05T01:50:21.535Z,101470.84
2018-10-05T01:52:51.234Z,101469.48
2018-10-05T01:55:20.757Z,101469.77
2018-10-05T01:57:50.278Z,101474.27
2018-10-05T02:00:20.110Z,101464.91
2018-10-05T02:02:49.620Z,101465.70
2018-10-05T02:05:19.156Z,101467.63
2018-10-05T02:07:48.714Z,101467.97
2018-10-05T02:10:18.300Z,101465.77
2018-10-05T02:12:47.942Z,101457.69
2018-10-05T02:15:17.522Z,101464.31
2018-10-05T02:17:47.041Z,101462.30
2018-10-05T02:20:16.569Z,101452.02
2018-10-05T02:22:46.051Z,101456.85
2018-10-05T02:25:15.562Z,101458.03
2018-10-05T02:27:45.064Z,101456.05
2018-10-05T02:30:14.609Z,101447.86
2018-10-05T02:32:44.133Z,101441.27
2018-10-05T02:35:13.665Z,101439.75
2018-10-05T02:37:43.305Z,101442.20
2018-10-05T02:40:12.895Z,101436.98
2018-10-05T02:42:42.412Z,101431.34
2018-10-05T02:45:11.947Z,101433.95
2018-10-05T02:47:41.448Z,101428.82
2018-10-05T02:50:17.435Z,101424.88
2018-10-05T02:52:47.014Z,101424.65
2018-10-05T02:55:16.554Z,101423.83
2018-10-05T02:57:46.070Z,101417.39
2018-10-05T03:00:32.741Z,101418.88
2018-10-05T03:03:02.343Z,101421.52
2018-10-05T03:05:31.861Z,101418.20
2018-10-05T03:08:01.396Z,101419.86
2018-10-05T03:10:31.218Z,101412.59
2018-10-05T03:13:00.707Z,101414.92
2018-10-05T03:15:30.256Z,101415.64
2018-10-05T03:17:59.951Z,101408.94
2018-10-05T03:20:29.525Z,101415.73
2018-10-05T03:22:59.336Z,101416.05
2018-10-05T03:25:28.893Z,101410.77
2018-10-05T03:27:58.450Z,101400.91
2018-10-05T03:30:27.951Z,101403.80
2018-10-05T03:32:57.463Z,101404.60
2018-10-05T03:35:26.977Z,101402.05
2018-10-05T03:37:56.530Z,101397.52
2018-10-05T03:40:26.026Z,101400.99
2018-10-05T03:42:55.606Z,101399.33
2018-10-05T03:45:25.130Z,101392.91
2018-10-05T03:47:54.650Z,101399.42
2018-10-05T03:50:24.355Z,101395.16
2018-10-05T03:52:53.944Z,101392.93
2018-10-05T03:55:23.464Z,101392.55
2018-10-05T03:57:53.313Z,101388.22
2018-10-05T04:00:23.107Z,101389.61
2018-10-05T04:02:52.613Z,101388.81
2018-10-05T04:05:22.123Z,101387.66
2018-10-05T04:07:51.610Z,101387.39
2018-10-05T04:10:21.123Z,101384.39
2018-10-05T04:12:50.650Z,101388.81
2018-10-05T04:15:20.131Z,101384.02
2018-10-05T04:17:49.631Z,101383.00
2018-10-05T04:20:19.094Z,101384.66
2018-10-05T04:22:48.563Z,101390.27
2018-10-05T04:25:18.263Z,101378.02
2018-10-05T04:27:47.771Z,101385.49
2018-10-05T04:30:17.320Z,101380.96
2018-10-05T04:32:46.777Z,101372.86
2018-10-05T04:35:16.275Z,101373.67
2018-10-05T04:37:45.781Z,101362.34
2018-10-05T04:40:15.324Z,101366.20
2018-10-05T04:42:44.821Z,101354.52
2018-10-05T04:45:14.375Z,101351.44
2018-10-05T04:47:43.876Z,101353.25
2018-10-05T04:50:13.370Z,101353.04
2018-10-05T04:52:42.919Z,101360.98
2018-10-05T04:55:12.408Z,101361.56
2018-10-05T04:57:42.039Z,101360.85
2018-10-05T05:00:11.543Z,101356.91
2018-10-05T05:02:41.117Z,101359.41
2018-10-05T05:05:10.616Z,101354.96
2018-10-05T05:07:40.342Z,101355.30
2018-10-05T05:10:09.935Z,101354.73
2018-10-05T05:12:39.427Z,101354.38
2018-10-05T05:15:09.356Z,101358.09
2018-10-05T05:17:38.909Z,101355.70
2018-10-05T05:20:08.528Z,101351.90
2018-10-05T05:22:38.321Z,101353.20
2018-10-05T05:25:07.866Z,101355.01
2018-10-05T05:27:37.413Z,101350.23
2018-10-05T05:30:07.579Z,101351.52
2018-10-05T05:32:37.218Z,101342.52
2018-10-05T05:35:07.060Z,101339.17
2018-10-05T05:37:36.591Z,101343.97
2018-10-05T05:40:06.751Z,101339.94
2018-10-05T05:42:36.210Z,101340.80
2018-10-05T05:45:05.705Z,101339.94
2018-10-05T05:47:35.228Z,101341.57
2018-10-05T05:50:04.785Z,101338.43
2018-10-05T05:52:34.275Z,101336.20
2018-10-05T05:55:04.045Z,101334.37
2018-10-05T05:57:33.762Z,101337.77
2018-10-05T06:00:03.634Z,101336.83
2018-10-05T06:02:33.122Z,101335.50
2018-10-05T06:05:02.645Z,101337.75
2018-10-05T06:07:32.183Z,101330.31
2018-10-05T06:10:01.765Z,101322.81
2018-10-05T06:12:31.258Z,101321.77
2018-10-05T06:15:00.774Z,101325.44
2018-10-05T06:17:30.281Z,101320.54
2018-10-05T06:22:56.720Z,101321.95
2018-10-05T06:25:26.267Z,101316.54
2018-10-05T06:27:55.781Z,101320.20
2018-10-05T06:30:25.602Z,101318.38
2018-10-05T06:32:55.268Z,101323.41
2018-10-05T06:35:24.928Z,101316.89
2018-10-05T06:37:54.504Z,101315.70
2018-10-05T06:40:24.163Z,101321.17
2018-10-05T06:42:53.653Z,101322.28
2018-10-05T06:45:23.199Z,101323.39
2018-10-05T06:47:52.748Z,101325.83
2018-10-05T06:50:22.278Z,101325.56
2018-10-05T06:52:51.959Z,101327.97
2018-10-05T06:55:21.482Z,101322.98
2018-10-05T06:57:50.978Z,101310.09
2018-10-05T07:00:20.498Z,101323.47
2018-10-05T07:02:49.999Z,101323.77
2018-10-05T07:05:19.510Z,101321.84
2018-10-05T07:07:49.155Z,101321.67
2018-10-05T07:10:18.716Z,101318.73
2018-10-05T07:12:48.258Z,101314.98
2018-10-05T07:15:18.164Z,101315.55
2018-10-05T07:17:47.761Z,101311.73
2018-10-05T07:20:17.309Z,101306.62
2018-10-05T07:22:47.134Z,101315.78
2018-10-05T07:25:16.657Z,101315.36
2018-10-05T07:27:46.225Z,101318.01
2018-10-05T07:30:15.788Z,101314.67
2018-10-05T07:32:45.337Z,101312.36
2018-10-05T07:35:14.842Z,101310.24
2018-10-05T07:37:44.384Z,101312.80
2018-10-05T07:40:13.865Z,101314.73
2018-10-05T07:42:43.593Z,101312.92
2018-10-05T07:45:13.126Z,101318.93
2018-10-05T07:47:42.767Z,101309.25
2018-10-05T07:50:12.407Z,101307.02
2018-10-05T07:52:41.947Z,101304.46
2018-10-05T07:55:11.446Z,101304.03
2018-10-05T07:57:41.276Z,101305.34
2018-10-05T08:00:10.827Z,101298.70
2018-10-05T08:02:40.348Z,101305.34
2018-10-05T08:05:10.560Z,101303.69
2018-10-05T08:07:40.060Z,101302.88
2018-10-05T08:10:09.585Z,101298.30
2018-10-05T08:12:39.342Z,101304.35
2018-10-05T08:15:09.281Z,101299.73
2018-10-05T08:17:38.818Z,101295.52
2018-10-05T08:20:08.323Z,101300.57
2018-10-05T08:22:37.841Z,101291.01
2018-10-05T08:25:07.719Z,101292.57
2018-10-05T08:27:37.449Z,101295.07
2018-10-05T08:30:08.201Z,101289.69
2018-10-05T08:32:37.954Z,101285.75
2018-10-05T08:35:07.493Z,101295.48
2018-10-05T08:37:36.966Z,101286.56
2018-10-05T08:40:07.962Z,101271.55
2018-10-05T08:42:37.663Z,101275.64
2018-10-05T08:45:07.378Z,101269.35
2018-10-05T08:47:37.001Z,101268.78
2018-10-05T08:50:06.945Z,101265.31
2018-10-05T08:52:36.475Z,101267.75
2018-10-05T08:55:06.056Z,101259.56
2018-10-05T08:57:35.949Z,101260.51
2018-10-05T09:00:05.554Z,101255.81
2018-10-05T09:02:35.272Z,101251.73
2018-10-05T09:05:04.763Z,101250.95
2018-10-05T09:07:34.698Z,101246.59
2018-10-05T09:10:04.522Z,101239.01
2018-10-05T09:12:34.073Z,101233.09
2018-10-05T09:15:03.563Z,101230.84
2018-10-05T09:17:33.115Z,101222.29
2018-10-05T09:20:02.797Z,101213.58
2018-10-05T09:22:32.353Z,101213.28
2018-10-05T09:25:01.870Z,101206.48
2018-10-05T09:27:31.348Z,101210.97
2018-10-05T09:30:00.873Z,101207.99
2018-10-05T09:32:30.452Z,101203.91
2018-10-05T09:34:59.962Z,101197.09
2018-10-05T09:37:29.568Z,101196.06
2018-10-05T09:39:59.258Z,101185.89
2018-10-05T09:42:28.760Z,101182.44
2018-10-05T09:44:58.325Z,101179.85
2018-10-05T09:47:27.947Z,101171.34
2018-10-05T09:49:57.605Z,101163.13
2018-10-05T09:52:27.281Z,101159.30
2018-10-05T09:54:56.973Z,101148.33
2018-10-05T09:57:26.554Z,101146.55
2018-10-05T09:59:56.215Z,101145.92
2018-10-05T10:02:31.042Z,101139.91
2018-10-05T10:05:00.717Z,101139.52
2018-10-05T10:07:30.232Z,101131.84
2018-10-05T10:09:59.833Z,101132.84
2018-10-05T10:12:29.352Z,101121.30
2018-10-05T10:14:58.968Z,101126.15
2018-10-05T10:17:28.492Z,101127.48
2018-10-05T10:19:58.315Z,101126.28
2018-10-05T10:22:27.853Z,101121.68
2018-10-05T10:24:58.024Z,101121.28
2018-10-05T10:27:27.522Z,101115.83
2018-10-05T10:29:57.269Z,101110.52
2018-10-05T10:32:26.892Z,101104.00
2018-10-05T10:34:56.523Z,101097.31
2018-10-05T10:37:26.297Z,101096.17
2018-10-05T10:39:55.873Z,101097.11
2018-10-05T10:42:25.563Z,101092.28
2018-10-05T10:44:55.255Z,101083.31
2018-10-05T10:47:24.803Z,101085.23
2018-10-05T10:49:54.429Z,101089.50
2018-10-05T10:52:23.949Z,101085.74
2018-10-05T10:54:53.567Z,101081.53
2018-10-05T10:57:23.260Z,101072.00
2018-10-05T10:59:52.786Z,101067.42
2018-10-05T11:02:22.406Z,101058.73
2018-10-05T11:04:52.031Z,101059.41
2018-10-05T11:07:21.842Z,101056.84
2018-10-05T11:09:51.388Z,101049.31
2018-10-05T11:12:20.915Z,101043.97
2018-10-05T11:14:50.443Z,101043.19
2018-10-05T11:17:19.937Z,101034.19
2018-10-05T11:19:49.614Z,101024.58
2018-10-05T11:22:19.158Z,101025.27
2018-10-05T11:24:48.675Z,101027.36
2018-10-05T11:27:18.229Z,101010.02
2018-10-05T11:29:47.835Z,101006.67
2018-10-05T11:32:17.504Z,101008.38
2018-10-05T11:34:47.010Z,101009.55
2018-10-05T11:37:16.540Z,101003.42
2018-10-05T11:39:46.054Z,100996.98
2018-10-05T11:42:15.603Z,100993.57
2018-10-05T11:44:45.111Z,100990.97
2018-10-05T11:47:14.618Z,100987.19
2018-10-05T11:49:44.198Z,100985.16
2018-10-05T11:52:13.737Z,100975.05
2018-10-05T11:54:43.805Z,100976.12
2018-10-05T11:57:13.352Z,100974.12
2018-10-05T11:59:42.942Z,100969.55
2018-10-05T12:02:12.690Z,100962.69
2018-10-05T12:04:42.180Z,100960.88
2018-10-05T12:07:11.682Z,100949.59
2018-10-05T12:09:41.399Z,100951.64
2018-10-05T12:12:10.989Z,100946.95
2018-10-05T12:14:40.494Z,100941.59
2018-10-05T12:17:10.402Z,100944.46
2018-10-05T12:19:39.910Z,100950.27
2018-10-05T12:22:09.416Z,100944.86
2018-10-05T12:24:39.213Z,100937.38
2018-10-05T12:27:08.830Z,100925.55
2018-10-05T12:29:38.531Z,100930.44
2018-10-05T12:32:08.284Z,100916.42
2018-10-05T12:34:37.809Z,100917.81
2018-10-05T12:37:07.481Z,100911.72
2018-10-05T12:39:37.111Z,100916.28
2018-10-05T12:42:06.829Z,100906.16
2018-10-05T12:44:36.467Z,100904.34
2018-10-05T12:47:06.031Z,100896.99
2018-10-05T12:49:35.502Z,100900.63
2018-10-05T12:52:05.000Z,100898.05
2018-10-05T12:54:34.910Z,100905.39
2018-10-05T12:57:04.428Z,100894.45
2018-10-05T12:59:34.060Z,100897.81
2018-10-05T13:02:03.602Z,100895.87
2018-10-05T13:04:33.228Z,100885.81
2018-10-05T13:07:02.752Z,100882.75
2018-10-05T13:09:32.249Z,100879.80
2018-10-05T13:12:01.896Z,100874.34
2018-10-05T13:14:31.466Z,100866.97
2018-10-05T13:17:00.991Z,100868.38
2018-10-05T13:19:30.514Z,100866.11
2018-10-05T13:22:00.092Z,100862.24
2018-10-05T13:24:29.714Z,100863.58
2018-10-05T13:26:59.468Z,100853.52
2018-10-05T13:29:28.993Z,100852.23
2018-10-05T13:31:58.545Z,100850.05
2018-10-05T13:34:28.437Z,100850.81
2018-10-05T13:36:58.146Z,100847.95
2018-10-05T13:39:27.747Z,100844.55
2018-10-05T13:41:57.269Z,100840.03
2018-10-05T13:44:26.960Z,100833.69
2018-10-05T13:46:57.113Z,100826.34
2018-10-05T13:49:26.619Z,100830.41
2018-10-05T13:51:56.129Z,100821.57
2018-10-05T13:54:26.707Z,100817.30
2018-10-05T13:56:56.235Z,100818.42
2018-10-05T13:59:25.802Z,100816.87
2018-10-05T14:01:55.313Z,100808.59
2018-10-05T14:04:24.858Z,100801.92
2018-10-05T14:06:54.432Z,100804.27
2018-10-05T14:09:24.091Z,100798.94
2018-10-05T14:11:53.605Z,100800.27
2018-10-05T14:14:23.103Z,100793.44
2018-10-05T14:16:52.662Z,100790.94
2018-10-05T14:19:22.192Z,100788.59
2018-10-05T14:21:51.853Z,100787.46
2018-10-05T14:24:21.518Z,100788.86
2018-10-05T14:26:51.223Z,100784.41
2018-10-05T14:29:20.753Z,100782.09
2018-10-05T14:31:50.337Z,100780.60
2018-10-05T14:34:19.830Z,100777.05
2018-10-05T14:36:49.388Z,100773.88
2018-10-05T14:39:18.936Z,100766.88
2018-10-05T14:41:48.593Z,100759.27
2018-10-05T14:44:18.377Z,100753.61
2018-10-05T14:46:47.904Z,100754.78
2018-10-05T14:49:18.073Z,100754.95
2018-10-05T14:51:47.768Z,100746.17
2018-10-05T14:54:17.361Z,100740.84
2018-10-05T14:56:47.163Z,100735.44
2018-10-05T14:59:16.672Z,100730.72
2018-10-05T15:01:46.198Z,100728.80
2018-10-05T15:04:15.699Z,100722.23
2018-10-05T15:06:45.311Z,100718.29
2018-10-05T15:09:14.806Z,100720.30
2018-10-05T15:11:44.471Z,100721.94
2018-10-05T15:14:15.050Z,100712.70
2018-10-05T15:16:44.603Z,100717.63
2018-10-05T15:19:14.322Z,100708.72
2018-10-05T15:21:43.854Z,100703.00
2018-10-05T15:24:13.397Z,100705.34
2018-10-05T15:26:42.912Z,100688.73
2018-10-05T15:29:12.365Z,100688.91
2018-10-05T15:31:41.881Z,100689.75
2018-10-05T15:34:11.416Z,100682.24
2018-10-05T15:36:41.354Z,100680.91
2018-10-05T15:39:11.218Z,100674.05
2018-10-05T15:41:40.709Z,100665.31
2018-10-05T15:44:10.207Z,100667.30
2018-10-05T15:47:01.077Z,100660.58
2018-10-05T15:49:31.441Z,100658.40
2018-10-05T15:52:01.285Z,100655.22
2018-10-05T15:54:30.970Z,100662.01
2018-10-05T15:57:01.147Z,100660.67
2018-10-05T15:59:31.598Z,100661.63
2018-10-05T16:02:01.403Z,100663.41
2018-10-05T16:04:31.237Z,100667.98
2018-10-05T16:07:00.718Z,100671.10
2018-10-05T16:09:30.237Z,100667.40
2018-10-05T16:11:59.825Z,100664.17
2018-10-05T16:14:29.541Z,100662.65
2018-10-05T16:16:59.215Z,100665.86
2018-10-05T16:19:28.815Z,100664.00
2018-10-05T16:21:58.292Z,100675.27
2018-10-05T16:24:32.306Z,100670.03
2018-10-05T16:27:01.828Z,100670.96
2018-10-05T16:29:31.345Z,100670.29
2018-10-05T16:32:00.867Z,100665.48
2018-10-05T16:34:30.374Z,100669.84
2018-10-05T16:36:59.905Z,100675.97
2018-10-05T16:39:29.409Z,100677.08
2018-10-05T16:41:58.927Z,100678.83
2018-10-05T16:44:28.479Z,100675.53
2018-10-05T16:46:58.372Z,100678.95
2018-10-05T16:49:27.915Z,100683.48
2018-10-05T16:51:57.407Z,100681.04
2018-10-05T16:54:26.901Z,100684.72
2018-10-05T16:56:56.420Z,100682.48
2018-10-05T16:59:26.125Z,100679.94
2018-10-05T17:01:55.674Z,100681.50
2018-10-05T17:04:25.293Z,100685.55
2018-10-05T17:06:54.808Z,100690.07
2018-10-05T17:09:24.352Z,100691.34
2018-10-05T17:11:53.857Z,100684.27
2018-10-05T17:14:23.409Z,100691.87
2018-10-05T17:16:52.935Z,100698.44
2018-10-05T17:19:22.434Z,100695.32
2018-10-05T17:21:52.021Z,100691.27
2018-10-05T17:24:21.554Z,100696.77
2018-10-05T17:26:51.465Z,100698.19
2018-10-05T17:29:21.085Z,100691.41
2018-10-05T17:31:50.743Z,100690.60
2018-10-05T17:34:20.267Z,100690.86
2018-10-05T17:36:49.850Z,100690.75
2018-10-05T17:39:19.487Z,100694.21
2018-10-05T17:41:49.213Z,100684.73
2018-10-05T17:44:18.763Z,100689.70
2018-10-05T17:46:48.296Z,100691.94
2018-10-05T17:49:17.910Z,100689.70
2018-10-05T17:51:47.497Z,100695.14
2018-10-05T17:54:17.019Z,100691.58
2018-10-05T17:56:46.595Z,100691.87
2018-10-05T17:59:16.191Z,100690.11
2018-10-05T18:01:45.743Z,100691.80
2018-10-05T18:04:15.501Z,100692.77
2018-10-05T18:06:45.064Z,100693.86
2018-10-05T18:09:14.645Z,100687.61
2018-10-05T18:11:44.168Z,100684.11
2018-10-05T18:14:13.681Z,100680.48
2018-10-05T18:16:43.252Z,100675.69
2018-10-05T18:19:12.877Z,100674.37
2018-10-05T18:21:43.025Z,100671.25
2018-10-05T18:24:12.603Z,100669.09
2018-10-05T18:26:42.237Z,100670.55
2018-10-05T18:29:11.816Z,100669.50
2018-10-05T18:31:41.379Z,100666.85
2018-10-05T18:34:11.195Z,100665.62
2018-10-05T18:36:40.869Z,100663.31
2018-10-05T18:39:11.088Z,100660.77
2018-10-05T18:41:40.727Z,100660.77
2018-10-05T18:44:10.418Z,100661.27
2018-10-05T18:46:40.078Z,100661.13
2018-10-05T18:49:09.695Z,100659.58
2018-10-05T18:51:39.238Z,100662.11
2018-10-05T18:54:08.789Z,100661.84
2018-10-05T18:56:55.225Z,100649.70
2018-10-05T18:59:24.883Z,100654.64
2018-10-05T19:01:54.697Z,100651.38
2018-10-05T19:04:24.539Z,100644.28
2018-10-05T19:06:54.119Z,100638.73
2018-10-05T19:09:24.222Z,100646.87
2018-10-05T19:11:54.175Z,100649.12
2018-10-05T19:14:23.679Z,100643.02
2018-10-05T19:16:53.524Z,100640.72
2018-10-05T19:19:23.079Z,100640.49
2018-10-05T19:21:52.795Z,100635.45
2018-10-05T19:24:22.515Z,100626.81
2018-10-05T19:26:54.128Z,100634.38
2018-10-05T19:29:23.831Z,100627.77
2018-10-05T19:31:53.363Z,100626.92
2018-10-05T19:34:22.948Z,100623.56
2018-10-05T19:36:52.878Z,100625.59
2018-10-05T19:39:22.478Z,100623.80
2018-10-05T19:41:52.455Z,100625.48
2018-10-05T19:44:21.956Z,100622.37
2018-10-05T19:46:51.486Z,100618.86
2018-10-05T19:49:21.149Z,100623.66
2018-10-05T19:51:50.997Z,100618.45
2018-10-05T19:54:20.517Z,100619.30
2018-10-05T19:56:50.064Z,100621.36
2018-10-05T19:59:19.564Z,100625.05
2018-10-05T20:01:49.141Z,100619.39
2018-10-05T20:04:18.897Z,100623.11
2018-10-05T20:06:48.485Z,100618.92
2018-10-05T20:09:18.111Z,100618.42
2018-10-05T20:11:47.773Z,100604.14
2018-10-05T20:14:17.461Z,100605.11
2018-10-05T20:16:47.114Z,100609.80
2018-10-05T20:19:16.688Z,100606.30
2018-10-05T20:21:46.182Z,100604.64
2018-10-05T20:24:15.709Z,100605.59
2018-10-05T20:26:45.499Z,100605.94
2018-10-05T20:29:15.067Z,100602.42
2018-10-05T20:31:44.597Z,100589.31
2018-10-05T20:34:14.262Z,100593.65
2018-10-05T20:36:44.344Z,100591.48
2018-10-05T20:39:13.874Z,100587.17
2018-10-05T20:41:43.462Z,100583.21
2018-10-05T20:44:13.083Z,100585.86
2018-10-05T20:46:43.074Z,100584.62
2018-10-05T20:49:12.850Z,100583.78
2018-10-05T20:51:42.461Z,100583.53
2018-10-05T20:54:12.533Z,100586.08
2018-10-05T20:56:42.043Z,100579.82
2018-10-05T20:59:11.567Z,100584.76
2018-10-05T21:01:41.089Z,100582.22
2018-10-05T21:04:10.685Z,100581.88
2018-10-05T21:06:40.523Z,100590.02
2018-10-05T21:09:11.049Z,100582.95
2018-10-05T21:11:40.526Z,100592.19
2018-10-05T21:14:09.992Z,100589.55
2018-10-05T21:16:39.508Z,100584.12
2018-10-05T21:19:09.067Z,100590.09
2018-10-05T21:21:38.579Z,100582.68
2018-10-05T21:24:08.485Z,100583.39
2018-10-05T21:26:37.995Z,100586.13
2018-10-05T21:29:08.337Z,100586.13
2018-10-05T21:31:37.999Z,100582.91
2018-10-05T21:34:07.785Z,100585.54
2018-10-05T21:36:37.270Z,100587.43
2018-10-05T21:39:10.034Z,100578.55
2018-10-05T21:41:39.538Z,100582.41
2018-10-05T21:44:09.056Z,100582.97
2018-10-05T21:46:38.965Z,100580.94
2018-10-05T21:49:08.627Z,100588.70
2018-10-05T21:51:38.142Z,100579.59
2018-10-05T21:54:08.146Z,100579.56
2018-10-05T21:56:37.736Z,100574.03
2018-10-05T21:59:07.304Z,100577.61
2018-10-05T22:01:36.791Z,100580.38
2018-10-05T22:04:06.819Z,100567.62
2018-10-05T22:06:36.350Z,100573.28
2018-10-05T22:09:09.479Z,100570.95
2018-10-05T22:11:39.304Z,100573.59
2018-10-05T22:14:09.170Z,100582.48
2018-10-05T22:16:38.796Z,100565.65
2018-10-05T22:19:08.298Z,100571.05
2018-10-05T22:21:37.822Z,100567.09
2018-10-05T22:24:07.342Z,100558.93
2018-10-05T22:26:36.916Z,100563.27
2018-10-05T22:29:06.409Z,100562.26
2018-10-05T22:31:35.909Z,100561.06
2018-10-05T22:34:05.398Z,100554.44
2018-10-05T22:36:34.931Z,100554.22
2018-10-05T22:39:05.762Z,100559.97
2018-10-05T22:41:35.421Z,100562.23
2018-10-05T22:44:04.906Z,100555.84
2018-10-05T22:46:34.426Z,100554.75
2018-10-05T22:49:03.930Z,100559.46
2018-10-05T22:51:33.416Z,100563.04
2018-10-05T22:54:03.045Z,100558.36
2018-10-05T22:56:32.567Z,100555.47
2018-10-05T22:59:02.075Z,100554.62
2018-10-05T23:01:31.552Z,100551.60
2018-10-05T23:04:01.068Z,100553.30
2018-10-05T23:06:30.599Z,100551.27
2018-10-05T23:09:00.069Z,100552.36
2018-10-05T23:11:29.749Z,100554.24
2018-10-05T23:13:59.226Z,100553.14
2018-10-05T23:16:28.742Z,100553.39
2018-10-05T23:18:58.219Z,100547.83
2018-10-05T23:21:27.708Z,100553.70
2018-10-05T23:23:57.251Z,100553.82
2018-10-05T23:26:26.813Z,100544.69
2018-10-05T23:28:56.328Z,100545.91
2018-10-05T23:31:25.825Z,100541.48
2018-10-05T23:33:55.354Z,100535.71
2018-10-05T23:36:24.850Z,100546.85
2018-10-05T23:38:54.404Z,100535.08
2018-10-05T23:41:23.902Z,100538.19
2018-10-05T23:43:53.430Z,100539.34
2018-10-05T23:46:22.944Z,100541.03
2018-10-05T23:48:52.456Z,100535.89
2018-10-05T23:51:22.038Z,100538.62
2018-10-05T23:53:51.545Z,100531.39
2018-10-05T23:56:21.390Z,100531.98
2018-10-05T23:58:50.964Z,100530.58
